Terminal Aerodrome Forecast
Issued by NWS

Home | Current Version | Previous Version | Text Only | Print | Product List | Glossary On
Versions: 1 2 3 4 5 6 7 8 9 10 11 12 13 14 15 16 17
224
FTUS43 KDTX 100525
TAFDET
TAF
KDET 100525Z 1006/1106 30013KT 2SM -SN OVC015
     FM100700 30013KT P6SM -SHSN OVC025
     FM101500 32013G18KT 6SM -SHSN BKN025 OVC035
     FM102200 32013KT P6SM SCT035 BKN045
     FM110400 30011KT P6SM SCT045=

USA.gov is the U.S. government's official web portal to all federal, state and local government web resources and services.